Nizwa, Oman
Current Conditions -  °F | °C
As of 3:52 AM on Tuesday 23 Dec 2014 (Local Time) from EQMN Reporting Station
Clear Clear  
Wind Chill: 64°   Ceiling: Unl
Heat Index: 64°   Visibility: 6mi
Dew Point: 39°   Wind: 8mph
Humidity: 40%   Direction: 210°SSW
Pressure: 29.94"   Gusts: NA
Location:  22.92°N, 57.53°E
Report Text: EQMN 222352Z AUTO 21007KT CAVOK 18/04 Q1014
Loading
Personal Weather Stations






























Interactive Weather Map New forecast layout! Learn more

10-Day Weather Forecast

Advertisements
Track Severe Weather on mobile